TimeEDT,TemperatureF,Dew PointF,Humidity,Sea Level PressureIn,VisibilityMPH,Wind Direction,Wind SpeedMPH,Gust SpeedMPH,PrecipitationIn,Events,Conditions,WindDirDegrees,DateUTC
12:45 AM,62.6,57.2,82,30.04,10.0,NNE,5.8,-,N/A,,Overcast,30,2013-08-30 04:45:00
12:53 AM,62.1,57.9,86,30.03,10.0,NNE,5.8,-,N/A,,Overcast,20,2013-08-30 04:53:00
1:18 AM,62.6,57.2,82,30.04,10.0,North,4.6,-,N/A,,Scattered Clouds,350,2013-08-30 05:18:00
1:53 AM,61.0,57.9,90,30.03,10.0,Calm,Calm,-,N/A,,Clear,0,2013-08-30 05:53:00
2:53 AM,59.0,57.0,93,30.02,10.0,Calm,Calm,-,N/A,,Clear,0,2013-08-30 06:53:00
3:53 AM,57.9,57.0,97,30.01,10.0,Calm,Calm,-,N/A,,Clear,0,2013-08-30 07:53:00
4:53 AM,57.0,55.9,96,30.01,8.0,Calm,Calm,-,N/A,,Mostly Cloudy,0,2013-08-30 08:53:00
5:53 AM,57.9,57.0,97,30.01,8.0,Calm,Calm,-,N/A,,Overcast,0,2013-08-30 09:53:00
6:27 AM,57.2,57.2,100,30.02,7.0,Calm,Calm,-,N/A,,Scattered Clouds,0,2013-08-30 10:27:00
6:53 AM,57.9,57.9,100,30.02,7.0,Calm,Calm,-,N/A,,Scattered Clouds,0,2013-08-30 10:53:00
7:53 AM,62.1,60.1,93,30.02,8.0,SW,3.5,-,0.00,Rain,Light Rain,220,2013-08-30 11:53:00
8:08 AM,62.6,59.0,88,30.01,10.0,SSW,3.5,-,0.00,,Overcast,200,2013-08-30 12:08:00
8:53 AM,64.0,60.1,87,30.01,10.0,WSW,3.5,-,0.00,,Overcast,240,2013-08-30 12:53:00
9:22 AM,64.4,60.8,88,30.00,10.0,SW,6.9,-,N/A,,Overcast,230,2013-08-30 13:22:00
9:53 AM,66.9,61.0,81,30.00,10.0,Variable,5.8,-,N/A,,Overcast,0,2013-08-30 13:53:00
10:53 AM,68.0,62.1,81,29.99,10.0,WSW,6.9,-,N/A,,Overcast,240,2013-08-30 14:53:00
11:53 AM,69.1,64.0,84,29.98,10.0,WSW,6.9,-,N/A,,Overcast,240,2013-08-30 15:53:00
12:53 PM,70.0,66.0,87,29.96,8.0,WSW,10.4,-,N/A,,Overcast,240,2013-08-30 16:53:00
1:31 PM,71.6,66.2,83,29.94,9.0,WSW,10.4,17.3,N/A,,Overcast,250,2013-08-30 17:31:00
1:53 PM,72.0,66.0,81,29.94,9.0,SW,8.1,-,N/A,,Overcast,230,2013-08-30 17:53:00
2:53 PM,73.9,66.9,79,29.92,9.0,WSW,6.9,17.3,N/A,,Overcast,240,2013-08-30 18:53:00
3:53 PM,75.9,66.9,74,29.90,10.0,SW,8.1,17.3,N/A,,Clear,220,2013-08-30 19:53:00
4:53 PM,75.0,66.9,76,29.89,10.0,SW,9.2,-,N/A,,Clear,230,2013-08-30 20:53:00
5:53 PM,73.0,68.0,84,29.89,10.0,South,5.8,-,N/A,,Clear,190,2013-08-30 21:53:00
6:53 PM,72.0,68.0,87,29.89,9.0,SW,5.8,-,N/A,,Clear,220,2013-08-30 22:53:00
7:53 PM,71.1,68.0,90,29.88,9.0,SSW,4.6,-,N/A,,Clear,200,2013-08-30 23:53:00
8:53 PM,70.0,68.0,93,29.88,7.0,SW,3.5,-,N/A,,Clear,230,2013-08-31 00:53:00
9:53 PM,70.0,68.0,93,29.88,7.0,SW,3.5,-,N/A,,Clear,230,2013-08-31 01:53:00
10:53 PM,69.1,68.0,96,29.88,6.0,SW,4.6,-,N/A,,Clear,230,2013-08-31 02:53:00
11:53 PM,69.1,68.0,96,29.88,7.0,SW,3.5,-,N/A,,Clear,220,2013-08-31 03:53:00